createdAt,value
2022-08-28T00:00:10.432Z,12.93
2022-08-28T00:02:38.028Z,14.93
2022-08-28T00:05:07.105Z,12.38
2022-08-28T00:07:34.621Z,11.95
2022-08-28T00:10:04.666Z,11.73
2022-08-28T00:12:32.239Z,10.60
2022-08-28T00:14:59.660Z,9.75
2022-08-28T00:17:27.142Z,9.32
2022-08-28T00:19:54.569Z,8.32
2022-08-28T00:22:22.003Z,5.85
2022-08-28T00:24:49.393Z,4.95
2022-08-28T00:27:36.153Z,4.95
2022-08-28T00:30:04.473Z,4.60
2022-08-28T00:32:32.401Z,4.65
2022-08-28T00:35:01.637Z,5.30
2022-08-28T00:37:29.339Z,5.05
2022-08-28T00:39:56.805Z,5.32
2022-08-28T00:42:25.612Z,4.22
2022-08-28T00:44:52.996Z,3.78
2022-08-28T00:47:20.401Z,4.30
2022-08-28T00:49:52.429Z,5.07
2022-08-28T00:52:20.240Z,6.85
2022-08-28T00:54:59.217Z,8.02
2022-08-28T00:57:31.634Z,10.82
2022-08-28T00:59:59.440Z,7.28
2022-08-28T01:02:27.555Z,8.25
2022-08-28T01:04:55.999Z,7.40
2022-08-28T01:07:23.840Z,7.30
2022-08-28T01:09:54.431Z,4.25
2022-08-28T01:12:25.031Z,4.25
2022-08-28T01:14:59.999Z,3.38
2022-08-28T01:17:31.192Z,3.67
2022-08-28T01:20:02.958Z,3.75
2022-08-28T01:22:37.217Z,3.10
2022-08-28T01:27:35.504Z,3.00
2022-08-28T01:30:03.248Z,4.45
2022-08-28T01:32:34.597Z,6.22
2022-08-28T01:35:02.999Z,5.63
2022-08-28T01:37:31.550Z,5.55
2022-08-28T01:40:01.125Z,5.35
2022-08-28T01:42:29.929Z,4.10
2022-08-28T01:44:57.933Z,2.83
2022-08-28T01:47:25.358Z,4.55
2022-08-28T01:49:52.764Z,7.78
2022-08-28T01:52:20.152Z,7.38
2022-08-28T01:54:53.823Z,9.30
2022-08-28T01:57:21.250Z,10.30
2022-08-28T01:59:51.832Z,10.48
2022-08-28T02:02:19.249Z,7.97
2022-08-28T02:04:48.380Z,8.75
2022-08-28T02:07:16.960Z,8.98
2022-08-28T02:09:44.761Z,10.68
2022-08-28T02:12:12.153Z,11.23
2022-08-28T02:14:39.555Z,12.32
2022-08-28T02:17:08.261Z,12.75
2022-08-28T02:19:35.817Z,12.60
2022-08-28T02:22:06.036Z,14.32
2022-08-28T02:24:33.429Z,12.93
2022-08-28T02:27:02.147Z,12.45
2022-08-28T02:29:29.774Z,12.30
2022-08-28T02:31:57.296Z,10.73
2022-08-28T02:34:26.024Z,8.48
2022-08-28T02:36:53.449Z,7.70
2022-08-28T02:39:20.840Z,7.70
2022-08-28T02:41:48.508Z,7.07
2022-08-28T02:44:17.283Z,8.13
2022-08-28T02:46:44.733Z,11.05
2022-08-28T02:49:12.122Z,13.30
2022-08-28T02:51:40.920Z,12.60
2022-08-28T02:54:08.304Z,12.73
2022-08-28T02:56:35.832Z,11.48
2022-08-28T02:59:03.232Z,10.38
2022-08-28T03:01:30.693Z,10.82
2022-08-28T03:03:58.193Z,8.80
2022-08-28T03:06:25.607Z,7.05
2022-08-28T03:08:54.318Z,7.78
2022-08-28T03:11:22.885Z,7.47
2022-08-28T03:13:50.401Z,6.85
2022-08-28T03:16:17.940Z,7.25
2022-08-28T03:18:45.412Z,7.18
2022-08-28T03:21:12.897Z,7.95
2022-08-28T03:23:40.973Z,7.22
2022-08-28T03:26:11.610Z,6.10
2022-08-28T03:28:41.889Z,5.90
2022-08-28T03:31:10.693Z,5.80
2022-08-28T03:33:42.560Z,4.85
2022-08-28T03:36:10.681Z,5.30
2022-08-28T03:38:38.347Z,5.10
2022-08-28T03:41:12.448Z,5.15
2022-08-28T03:43:40.441Z,7.15
2022-08-28T03:46:08.929Z,9.25
2022-08-28T03:48:38.339Z,12.65
2022-08-28T03:51:10.738Z,11.63
2022-08-28T03:53:38.671Z,9.70
2022-08-28T03:56:08.710Z,8.15
2022-08-28T03:58:37.885Z,5.32
2022-08-28T04:01:05.382Z,4.63
2022-08-28T04:03:32.939Z,2.97
2022-08-28T04:06:00.687Z,4.00
2022-08-28T04:08:29.382Z,4.95
2022-08-28T04:10:57.510Z,4.75
2022-08-28T04:13:24.963Z,5.50
2022-08-28T04:16:00.980Z,3.63
2022-08-28T04:18:29.405Z,1.73
2022-08-28T04:21:01.179Z,1.75
2022-08-28T04:23:28.711Z,1.95
2022-08-28T04:25:56.338Z,2.22
2022-08-28T04:28:24.205Z,2.35
2022-08-28T04:30:54.406Z,1.90
2022-08-28T04:33:23.288Z,2.22
2022-08-28T04:35:50.728Z,1.90
2022-08-28T04:38:18.619Z,1.85
2022-08-28T04:40:46.195Z,1.70
2022-08-28T04:43:13.720Z,1.88
2022-08-28T04:45:41.902Z,1.80
2022-08-28T04:48:13.002Z,1.70
2022-08-28T04:50:43.808Z,1.90
2022-08-28T04:53:11.403Z,2.25
2022-08-28T04:55:53.748Z,2.78
2022-08-28T04:58:22.816Z,3.22
2022-08-28T05:00:53.976Z,3.45
2022-08-28T05:03:21.729Z,3.38
2022-08-28T05:05:54.314Z,3.88
2022-08-28T05:08:23.935Z,4.40
2022-08-28T05:10:52.169Z,3.47
2022-08-28T05:13:20.604Z,2.72
2022-08-28T05:15:50.587Z,2.10
2022-08-28T05:18:20.396Z,1.75
2022-08-28T05:20:50.302Z,1.58
2022-08-28T05:23:17.793Z,2.50
2022-08-28T05:25:47.505Z,3.00
2022-08-28T05:28:16.762Z,2.92
2022-08-28T05:30:45.189Z,2.78
2022-08-28T05:33:14.661Z,2.20
2022-08-28T05:35:44.300Z,1.73
2022-08-28T05:38:15.142Z,1.83
2022-08-28T05:40:44.315Z,2.00
2022-08-28T05:43:13.427Z,3.75
2022-08-28T05:45:41.147Z,7.32
2022-08-28T05:48:09.290Z,9.95
2022-08-28T05:50:38.955Z,11.43
2022-08-28T05:53:09.205Z,10.27
2022-08-28T05:55:40.805Z,10.05
2022-08-28T05:58:22.227Z,11.02
2022-08-28T06:00:49.633Z,9.52
2022-08-28T06:03:17.092Z,8.48
2022-08-28T06:05:44.467Z,7.75
2022-08-28T06:08:11.963Z,7.70
2022-08-28T06:10:45.841Z,8.13
2022-08-28T06:13:15.286Z,7.32
2022-08-28T06:15:43.747Z,8.82
2022-08-28T06:18:12.477Z,9.02
2022-08-28T06:20:42.144Z,8.73
2022-08-28T06:23:10.473Z,10.25
2022-08-28T06:25:39.969Z,9.98
2022-08-28T06:28:08.790Z,10.18
2022-08-28T06:30:40.012Z,9.73
2022-08-28T06:33:09.568Z,7.10
2022-08-28T06:35:41.447Z,3.25
2022-08-28T06:38:09.280Z,1.50
2022-08-28T06:40:40.294Z,2.00
2022-08-28T06:43:09.368Z,1.92
2022-08-28T06:45:41.080Z,2.20
2022-08-28T06:48:09.327Z,2.33
2022-08-28T06:50:40.812Z,2.35
2022-08-28T06:53:08.892Z,2.40
2022-08-28T06:55:36.764Z,2.30
2022-08-28T06:58:05.557Z,2.40
2022-08-28T07:00:35.401Z,2.40
2022-08-28T07:03:04.761Z,2.50
2022-08-28T07:05:32.906Z,2.80
2022-08-28T07:08:00.788Z,2.83
2022-08-28T07:10:31.189Z,3.33
2022-08-28T07:13:00.305Z,2.95
2022-08-28T07:15:27.879Z,2.65
2022-08-28T07:17:56.843Z,2.70
2022-08-28T07:20:24.270Z,2.78
2022-08-28T07:22:54.130Z,2.50
2022-08-28T07:25:27.257Z,3.45
2022-08-28T07:27:54.654Z,3.30
2022-08-28T07:30:22.193Z,3.17
2022-08-28T07:32:49.844Z,3.28
2022-08-28T07:35:19.090Z,2.60
2022-08-28T07:37:46.635Z,2.90
2022-08-28T07:40:14.232Z,3.80
2022-08-28T07:42:59.493Z,2.63
2022-08-28T07:45:29.890Z,2.22
2022-08-28T07:47:57.545Z,2.85
2022-08-28T07:50:26.276Z,1.75
2022-08-28T07:52:53.656Z,1.48
2022-08-28T07:55:21.054Z,1.50
2022-08-28T07:57:49.861Z,1.40
2022-08-28T08:00:19.281Z,1.55
2022-08-28T08:02:46.753Z,1.40
2022-08-28T08:05:14.517Z,2.55
2022-08-28T08:07:43.882Z,4.38
2022-08-28T08:10:14.868Z,4.03
2022-08-28T08:12:48.021Z,4.68
2022-08-28T08:15:15.619Z,4.72
2022-08-28T08:17:45.032Z,4.43
2022-08-28T08:20:12.750Z,2.10
2022-08-28T08:22:40.244Z,1.73
2022-08-28T08:25:10.129Z,3.13
2022-08-28T08:27:42.346Z,1.80
2022-08-28T08:30:12.259Z,2.03
2022-08-28T08:32:40.155Z,2.85
2022-08-28T08:35:08.131Z,2.17
2022-08-28T08:37:35.515Z,2.20
2022-08-28T08:40:04.076Z,1.90
2022-08-28T08:42:37.803Z,1.55
2022-08-28T08:45:11.100Z,1.60
2022-08-28T08:47:43.648Z,1.70
2022-08-28T08:50:25.303Z,1.10
2022-08-28T08:53:08.348Z,1.40
2022-08-28T08:55:37.917Z,1.30
2022-08-28T08:58:11.514Z,1.25
2022-08-28T09:00:53.365Z,1.20
2022-08-28T09:03:25.081Z,1.58
2022-08-28T09:05:56.940Z,1.40
2022-08-28T09:08:32.715Z,1.30
2022-08-28T09:11:04.338Z,1.60
2022-08-28T09:13:45.564Z,1.90
2022-08-28T09:16:21.789Z,2.83
2022-08-28T09:18:50.676Z,3.55
2022-08-28T09:21:29.290Z,3.20
2022-08-28T09:24:01.007Z,3.35
2022-08-28T09:26:33.080Z,2.10
2022-08-28T09:29:05.767Z,2.20
2022-08-28T09:31:36.613Z,1.85
2022-08-28T09:34:22.778Z,1.85
2022-08-28T09:36:51.280Z,2.65
2022-08-28T09:39:21.244Z,3.20
2022-08-28T09:42:11.700Z,2.15
2022-08-28T09:45:00.319Z,1.95
2022-08-28T09:47:46.818Z,2.30
2022-08-28T09:50:33.841Z,2.30
2022-08-28T09:53:17.051Z,2.42
2022-08-28T09:55:55.070Z,2.03
2022-08-28T09:58:24.280Z,1.95
2022-08-28T10:00:59.877Z,2.08
2022-08-28T10:03:34.133Z,1.65
2022-08-28T10:06:09.464Z,2.10
2022-08-28T10:08:54.964Z,1.80
2022-08-28T10:11:30.118Z,1.63
2022-08-28T10:14:08.236Z,2.05
2022-08-28T10:16:47.031Z,1.88
2022-08-28T10:19:28.107Z,1.90
2022-08-28T10:22:07.531Z,1.70
2022-08-28T10:24:52.008Z,1.85
2022-08-28T10:27:35.934Z,1.60
2022-08-28T10:30:12.375Z,2.07
2022-08-28T10:33:12.725Z,2.22
2022-08-28T10:35:49.571Z,2.08
2022-08-28T10:38:21.499Z,3.30
2022-08-28T10:40:56.620Z,3.28
2022-08-28T10:43:30.821Z,1.90
2022-08-28T10:48:36.534Z,1.60
2022-08-28T10:51:07.023Z,1.85
2022-08-28T10:53:40.471Z,1.30
2022-08-28T10:56:11.232Z,1.10
2022-08-28T10:58:41.585Z,2.55
2022-08-28T11:01:12.564Z,2.70
2022-08-28T11:03:45.324Z,3.00
2022-08-28T11:06:19.677Z,3.55
2022-08-28T11:08:53.721Z,4.07
2022-08-28T11:11:44.530Z,4.65
2022-08-28T11:14:23.945Z,4.25
2022-08-28T11:16:51.682Z,5.05
2022-08-28T11:20:04.035Z,5.50
2022-08-28T11:22:37.806Z,5.50
2022-08-28T11:25:13.311Z,3.17
2022-08-28T11:27:41.241Z,5.30
2022-08-28T11:30:35.527Z,5.53
2022-08-28T11:33:30.954Z,5.60
2022-08-28T11:35:59.683Z,3.33
2022-08-28T11:39:15.980Z,4.55
2022-08-28T11:42:29.535Z,2.85
2022-08-28T11:44:56.981Z,2.78
2022-08-28T11:47:45.365Z,2.35
2022-08-28T11:50:51.876Z,2.30
2022-08-28T11:53:39.873Z,2.42
2022-08-28T11:56:32.134Z,2.35
2022-08-28T11:59:12.623Z,2.10
2022-08-28T12:01:40.487Z,2.35
2022-08-28T12:04:12.309Z,2.38
2022-08-28T12:06:48.375Z,2.35
2022-08-28T12:09:40.110Z,2.10
2022-08-28T12:12:13.461Z,1.98
2022-08-28T12:15:00.031Z,2.10
2022-08-28T12:17:39.558Z,2.10
2022-08-28T12:20:11.759Z,2.00
2022-08-28T12:22:49.909Z,1.88
2022-08-28T12:25:26.532Z,2.80
2022-08-28T12:27:56.016Z,2.47
2022-08-28T12:30:34.035Z,2.50
2022-08-28T12:33:13.823Z,2.50
2022-08-28T12:35:43.893Z,2.60
2022-08-28T12:38:20.049Z,1.80
2022-08-28T12:40:53.628Z,1.70
2022-08-28T12:43:32.718Z,1.70
2022-08-28T12:46:04.620Z,1.88
2022-08-28T12:48:37.063Z,1.50
2022-08-28T12:51:07.711Z,1.77
2022-08-28T12:53:42.576Z,2.22
2022-08-28T12:56:13.053Z,2.00
2022-08-28T12:58:41.960Z,2.30
2022-08-28T13:01:14.543Z,2.00
2022-08-28T13:03:51.165Z,1.98
2022-08-28T13:06:27.192Z,2.20
2022-08-28T13:09:00.938Z,2.22
2022-08-28T13:11:32.938Z,1.98
2022-08-28T13:14:00.972Z,2.22
2022-08-28T13:16:38.561Z,2.42
2022-08-28T13:19:21.972Z,1.85
2022-08-28T13:21:58.732Z,1.65
2022-08-28T13:24:45.640Z,1.05
2022-08-28T13:27:25.510Z,1.10
2022-08-28T13:30:00.901Z,2.00
2022-08-28T13:32:31.083Z,2.20
2022-08-28T13:35:30.271Z,1.13
2022-08-28T13:37:59.855Z,1.10
2022-08-28T13:43:19.264Z,1.13
2022-08-28T13:45:49.112Z,1.50
2022-08-28T13:48:19.572Z,1.50
2022-08-28T13:50:51.359Z,1.30
2022-08-28T13:53:20.476Z,1.10
2022-08-28T13:55:50.565Z,0.90
2022-08-28T13:58:19.703Z,1.00
2022-08-28T14:00:50.038Z,1.13
2022-08-28T14:03:35.426Z,1.08
2022-08-28T14:06:03.584Z,0.90
2022-08-28T14:08:31.216Z,0.90
2022-08-28T14:10:58.845Z,1.00
2022-08-28T14:13:27.855Z,0.82
2022-08-28T14:15:56.175Z,1.08
2022-08-28T14:18:24.178Z,1.00
2022-08-28T14:20:51.576Z,1.38
2022-08-28T14:23:19.008Z,2.17
2022-08-28T14:25:47.712Z,1.67
2022-08-28T14:28:16.266Z,1.60
2022-08-28T14:30:45.222Z,1.88
2022-08-28T14:33:14.977Z,1.92
2022-08-28T14:35:42.643Z,2.22
2022-08-28T14:38:11.077Z,1.95
2022-08-28T14:40:40.379Z,2.40
2022-08-28T14:43:09.927Z,2.60
2022-08-28T14:45:43.292Z,2.17
2022-08-28T14:48:13.004Z,2.85
2022-08-28T14:50:41.896Z,2.75
2022-08-28T14:53:09.646Z,2.10
2022-08-28T14:55:42.022Z,1.80
2022-08-28T14:58:09.416Z,1.80
2022-08-28T15:00:40.468Z,1.80
2022-08-28T15:03:07.949Z,1.35
2022-08-28T15:05:36.798Z,1.42
2022-08-28T15:08:07.613Z,1.40
2022-08-28T15:10:35.197Z,1.20
2022-08-28T15:13:02.621Z,1.10
2022-08-28T15:15:30.004Z,1.45
2022-08-28T15:17:57.380Z,1.48
2022-08-28T15:20:25.048Z,1.42
2022-08-28T15:22:53.759Z,1.40
2022-08-28T15:25:21.423Z,1.85
2022-08-28T15:27:48.793Z,2.65
2022-08-28T15:30:16.816Z,2.22
2022-08-28T15:32:46.086Z,1.70
2022-08-28T15:35:13.771Z,1.75
2022-08-28T15:37:41.225Z,2.10
2022-08-28T15:40:28.529Z,2.00
2022-08-28T15:42:56.045Z,2.08
2022-08-28T15:45:23.494Z,2.25
2022-08-28T15:47:50.918Z,2.10
2022-08-28T15:50:19.858Z,2.20
2022-08-28T15:52:47.483Z,1.98
2022-08-28T15:55:22.579Z,1.75
2022-08-28T15:57:53.345Z,1.65
2022-08-28T16:00:21.100Z,1.65
2022-08-28T16:02:48.503Z,1.58
2022-08-28T16:05:16.243Z,1.77
2022-08-28T16:07:43.720Z,1.48
2022-08-28T16:10:13.376Z,1.52
2022-08-28T16:12:42.503Z,1.58
2022-08-28T16:15:11.411Z,1.65
2022-08-28T16:17:38.896Z,1.50
2022-08-28T16:20:11.096Z,1.58
2022-08-28T16:22:41.336Z,1.55
2022-08-28T16:25:10.656Z,1.58
2022-08-28T16:27:38.063Z,1.55
2022-08-28T16:30:15.796Z,1.63
2022-08-28T16:32:46.850Z,1.65
2022-08-28T16:35:15.825Z,1.20
2022-08-28T16:37:43.884Z,0.98
2022-08-28T16:40:12.791Z,1.10
2022-08-28T16:42:51.605Z,1.20
2022-08-28T16:45:21.108Z,1.83
2022-08-28T16:47:49.001Z,1.70
2022-08-28T16:50:17.423Z,1.35
2022-08-28T16:52:44.860Z,1.50
2022-08-28T16:55:13.847Z,1.10
2022-08-28T16:57:42.094Z,1.10
2022-08-28T17:00:13.480Z,1.20
2022-08-28T17:02:42.678Z,1.40
2022-08-28T17:05:10.855Z,1.23
2022-08-28T17:07:39.724Z,1.70
2022-08-28T17:10:08.827Z,1.23
2022-08-28T17:12:36.221Z,1.33
2022-08-28T17:15:03.716Z,1.13
2022-08-28T17:17:31.140Z,1.40
2022-08-28T17:20:00.482Z,1.40
2022-08-28T17:22:32.146Z,1.42
2022-08-28T17:25:01.395Z,1.38
2022-08-28T17:27:29.817Z,1.25
2022-08-28T17:29:57.768Z,1.33
2022-08-28T17:32:25.332Z,1.50
2022-08-28T17:34:52.989Z,1.85
2022-08-28T17:37:21.732Z,2.00
2022-08-28T17:39:49.252Z,1.98
2022-08-28T17:42:16.663Z,2.00
2022-08-28T17:44:44.101Z,1.77
2022-08-28T17:47:11.896Z,1.38
2022-08-28T17:49:39.347Z,1.20
2022-08-28T17:52:07.152Z,1.23
2022-08-28T17:54:35.872Z,1.25
2022-08-28T17:57:03.283Z,1.08
2022-08-28T17:59:32.707Z,1.10
2022-08-28T18:02:01.315Z,1.10
2022-08-28T18:04:29.036Z,1.70
2022-08-28T18:06:56.472Z,1.70
2022-08-28T18:09:24.580Z,2.20
2022-08-28T18:11:53.933Z,2.70
2022-08-28T18:14:21.931Z,2.72
2022-08-28T18:16:49.459Z,2.80
2022-08-28T18:19:17.175Z,2.88
2022-08-28T18:21:44.934Z,2.80
2022-08-28T18:24:13.177Z,2.72
2022-08-28T18:26:41.439Z,3.22
2022-08-28T18:29:10.657Z,2.60
2022-08-28T18:31:38.189Z,2.50
2022-08-28T18:34:05.680Z,2.33
2022-08-28T18:36:33.187Z,2.00
2022-08-28T18:39:00.747Z,1.70
2022-08-28T18:41:35.757Z,1.40
2022-08-28T18:44:14.120Z,1.20
2022-08-28T18:46:42.555Z,1.23
2022-08-28T18:49:10.421Z,1.27
2022-08-28T18:51:37.916Z,1.10
2022-08-28T18:54:06.197Z,1.10
2022-08-28T18:56:33.924Z,1.20
2022-08-28T18:59:03.711Z,1.45
2022-08-28T19:01:32.797Z,1.70
2022-08-28T19:04:00.292Z,1.80
2022-08-28T19:06:27.771Z,2.10
2022-08-28T19:08:57.893Z,2.25
2022-08-28T19:11:25.664Z,2.30
2022-08-28T19:13:53.179Z,2.15
2022-08-28T19:16:21.408Z,2.10
2022-08-28T19:18:52.173Z,1.77
2022-08-28T19:21:20.772Z,1.70
2022-08-28T19:23:55.910Z,2.00
2022-08-28T19:26:24.468Z,2.72
2022-08-28T19:28:51.896Z,3.78
2022-08-28T19:31:19.463Z,3.92
2022-08-28T19:33:47.965Z,3.70
2022-08-28T19:36:17.243Z,3.03
2022-08-28T19:38:44.687Z,2.63
2022-08-28T19:41:14.151Z,2.25
2022-08-28T19:43:44.240Z,2.78
2022-08-28T19:46:19.675Z,3.03
2022-08-28T19:48:48.335Z,3.20
2022-08-28T19:51:17.599Z,3.22
2022-08-28T19:53:56.788Z,3.00
2022-08-28T19:56:27.706Z,3.08
2022-08-28T19:58:58.303Z,2.90
2022-08-28T20:01:25.918Z,2.90
2022-08-28T20:03:54.712Z,3.80
2022-08-28T20:06:23.755Z,4.32
2022-08-28T20:08:51.938Z,5.30
2022-08-28T20:11:24.816Z,6.07
2022-08-28T20:13:53.060Z,7.32
2022-08-28T20:16:21.418Z,8.82
2022-08-28T20:18:49.727Z,11.27
2022-08-28T20:21:18.645Z,10.80
2022-08-28T20:23:54.762Z,10.00
2022-08-28T20:26:22.252Z,8.43
2022-08-28T20:28:52.497Z,8.48
2022-08-28T20:31:20.777Z,8.93
2022-08-28T20:33:50.914Z,9.13
2022-08-28T20:36:21.157Z,7.63
2022-08-28T20:38:48.907Z,5.53
2022-08-28T20:41:20.700Z,4.05
2022-08-28T20:43:48.670Z,3.53
2022-08-28T21:00:48.604Z,3.47
2022-08-28T21:03:21.016Z,3.00
2022-08-28T21:05:55.109Z,2.10
2022-08-28T21:08:22.483Z,1.90
2022-08-28T21:10:52.758Z,1.60
2022-08-28T21:13:20.489Z,1.65
2022-08-28T21:15:49.184Z,1.50
2022-08-28T21:18:16.610Z,1.60
2022-08-28T21:20:44.727Z,1.20
2022-08-28T21:23:12.253Z,1.33
2022-08-28T21:25:41.813Z,1.35
2022-08-28T21:28:09.690Z,1.50
2022-08-28T21:30:37.406Z,1.65
2022-08-28T21:33:06.225Z,1.67
2022-08-28T21:35:33.678Z,1.70
2022-08-28T21:38:01.157Z,1.50
2022-08-28T21:40:28.607Z,1.30
2022-08-28T21:42:56.022Z,1.20
2022-08-28T21:45:23.438Z,1.30
2022-08-28T21:47:50.892Z,1.25
2022-08-28T21:50:20.640Z,1.10
2022-08-28T21:52:48.036Z,1.20
2022-08-28T21:55:17.388Z,1.17
2022-08-28T21:57:45.632Z,1.20
2022-08-28T22:00:18.830Z,0.98
2022-08-28T22:02:46.341Z,1.08
2022-08-28T22:05:14.200Z,1.15
2022-08-28T22:07:44.947Z,1.00
2022-08-28T22:10:12.946Z,1.00
2022-08-28T22:12:40.367Z,0.80
2022-08-28T22:15:08.880Z,1.10
2022-08-28T22:17:36.486Z,0.90
2022-08-28T22:20:04.835Z,0.90
2022-08-28T22:22:49.865Z,1.02
2022-08-28T22:25:18.927Z,0.90
2022-08-28T22:27:46.345Z,0.90
2022-08-28T22:30:14.129Z,1.00
2022-08-28T22:32:41.521Z,0.80
2022-08-28T22:35:10.499Z,0.98
2022-08-28T22:37:37.915Z,1.02
2022-08-28T22:40:09.637Z,1.27
2022-08-28T22:42:42.656Z,1.35
2022-08-28T22:45:11.020Z,1.40
2022-08-28T22:47:39.543Z,1.90
2022-08-28T22:50:08.456Z,2.05
2022-08-28T22:52:37.143Z,1.90
2022-08-28T22:55:06.605Z,1.92
2022-08-28T22:57:34.116Z,2.20
2022-08-28T23:00:04.503Z,2.13
2022-08-28T23:02:32.233Z,1.92
2022-08-28T23:04:59.610Z,2.03
2022-08-28T23:07:27.090Z,2.13
2022-08-28T23:09:54.481Z,2.10
2022-08-28T23:12:21.903Z,1.90
2022-08-28T23:14:49.641Z,2.00
2022-08-28T23:17:18.816Z,2.05
2022-08-28T23:19:48.130Z,1.70
2022-08-28T23:22:16.418Z,1.60
2022-08-28T23:24:46.147Z,2.03
2022-08-28T23:27:34.955Z,1.83
2022-08-28T23:30:01.373Z,1.85
2022-08-28T23:32:30.092Z,2.10
2022-08-28T23:34:57.732Z,2.25
2022-08-28T23:37:25.148Z,2.13
2022-08-28T23:39:52.523Z,2.25
2022-08-28T23:42:21.948Z,2.30
2022-08-28T23:44:49.641Z,2.40
2022-08-28T23:47:17.030Z,2.30
2022-08-28T23:49:47.030Z,2.13
2022-08-28T23:52:14.503Z,2.10
2022-08-28T23:54:41.906Z,2.10
2022-08-28T23:57:09.304Z,2.17
2022-08-28T23:59:38.601Z,1.92
